createdAt,value
2022-08-14T00:02:12.179Z,15.30
2022-08-14T00:04:58.570Z,15.19
2022-08-14T00:07:46.451Z,15.27
2022-08-14T00:10:52.614Z,15.36
2022-08-14T00:13:40.045Z,15.23
2022-08-14T00:16:41.199Z,15.16
2022-08-14T00:19:31.975Z,15.01
2022-08-14T00:22:44.547Z,15.05
2022-08-14T00:25:30.573Z,14.84
2022-08-14T00:28:29.238Z,14.98
2022-08-14T00:31:20.266Z,14.68
2022-08-14T00:34:36.706Z,14.93
2022-08-14T00:37:25.674Z,14.75
2022-08-14T00:40:27.359Z,14.95
2022-08-14T00:43:20.342Z,14.89
2022-08-14T00:46:32.858Z,14.79
2022-08-14T00:49:16.483Z,14.87
2022-08-14T00:52:07.508Z,14.74
2022-08-14T00:54:57.918Z,14.77
2022-08-14T00:57:45.117Z,14.65
2022-08-14T01:00:37.155Z,14.53
2022-08-14T01:03:30.837Z,14.45
2022-08-14T01:06:18.681Z,14.38
2022-08-14T01:09:05.105Z,14.32
2022-08-14T01:11:57.157Z,14.27
2022-08-14T01:14:55.141Z,14.26
2022-08-14T01:18:03.149Z,14.22
2022-08-14T01:21:03.655Z,14.19
2022-08-14T01:23:53.871Z,14.35
2022-08-14T01:26:40.590Z,14.22
2022-08-14T01:29:59.310Z,14.23
2022-08-14T01:32:51.467Z,13.99
2022-08-14T01:36:03.564Z,13.84
2022-08-14T01:38:48.801Z,13.99
2022-08-14T01:41:36.569Z,13.92
2022-08-14T01:44:32.159Z,14.00
2022-08-14T01:47:22.188Z,13.85
2022-08-14T01:50:10.185Z,13.96
2022-08-14T01:52:58.877Z,13.77
2022-08-14T01:55:48.086Z,13.73
2022-08-14T01:58:35.465Z,13.50
2022-08-14T02:01:58.096Z,13.71
2022-08-14T02:04:56.851Z,13.37
2022-08-14T02:07:55.645Z,13.31
2022-08-14T02:10:46.081Z,13.33
2022-08-14T02:13:33.951Z,13.29
2022-08-14T02:16:26.364Z,13.47
2022-08-14T02:19:16.573Z,13.29
2022-08-14T02:22:03.641Z,13.44
2022-08-14T02:24:51.197Z,13.35
2022-08-14T02:28:22.026Z,13.33
2022-08-14T02:30:45.992Z,13.52
2022-08-14T02:33:33.635Z,13.32
2022-08-14T02:37:04.485Z,13.22
2022-08-14T02:39:43.453Z,13.25
2022-08-14T02:42:37.129Z,13.22
2022-08-14T02:45:33.612Z,13.02
2022-08-14T02:49:01.942Z,12.94
2022-08-14T02:51:43.185Z,13.26
2022-08-14T02:54:30.879Z,12.91
2022-08-14T02:57:40.214Z,12.93
2022-08-14T03:00:24.519Z,12.90
2022-08-14T03:03:11.502Z,12.92
2022-08-14T03:05:57.858Z,12.88
2022-08-14T03:08:46.097Z,12.94
2022-08-14T03:11:34.656Z,12.93
2022-08-14T03:14:23.827Z,12.59
2022-08-14T03:17:11.456Z,12.71
2022-08-14T03:20:00.060Z,12.60
2022-08-14T03:22:46.867Z,12.51
2022-08-14T03:25:38.123Z,12.45
2022-08-14T03:28:29.730Z,12.54
2022-08-14T03:31:25.915Z,12.70
2022-08-14T03:34:25.049Z,12.33
2022-08-14T03:37:37.719Z,12.54
2022-08-14T03:40:28.164Z,12.45
2022-08-14T03:43:14.418Z,12.48
2022-08-14T03:46:04.411Z,12.53
2022-08-14T03:49:12.741Z,12.46
2022-08-14T03:52:04.762Z,12.38
2022-08-14T03:55:10.603Z,12.34
2022-08-14T03:58:00.613Z,12.44
2022-08-14T04:00:47.753Z,12.27
2022-08-14T04:03:37.278Z,12.29
2022-08-14T04:06:28.435Z,12.40
2022-08-14T04:09:18.385Z,12.19
2022-08-14T04:12:08.356Z,12.35
2022-08-14T04:14:59.655Z,12.08
2022-08-14T04:17:46.368Z,12.18
2022-08-14T04:20:32.934Z,12.21
2022-08-14T04:23:29.930Z,12.10
2022-08-14T04:26:42.504Z,12.09
2022-08-14T04:29:28.427Z,12.06
2022-08-14T04:33:01.290Z,12.12
2022-08-14T04:35:26.798Z,12.11
2022-08-14T04:38:51.579Z,12.30
2022-08-14T04:41:58.889Z,12.43
2022-08-14T04:44:48.920Z,12.27
2022-08-14T04:47:56.468Z,12.43
2022-08-14T04:50:53.935Z,12.66
2022-08-14T04:53:44.714Z,13.06
2022-08-14T04:56:34.114Z,13.08
2022-08-14T04:59:22.342Z,13.40
2022-08-14T05:02:08.626Z,13.41
2022-08-14T05:04:57.188Z,14.33
2022-08-14T05:07:54.431Z,15.44
2022-08-14T05:10:53.281Z,16.52
2022-08-14T05:14:06.591Z,18.00
2022-08-14T05:16:48.060Z,19.15
2022-08-14T05:19:36.463Z,19.50
2022-08-14T05:22:31.613Z,19.91
2022-08-14T05:25:19.992Z,20.40
2022-08-14T05:28:19.178Z,20.50
2022-08-14T05:31:07.211Z,20.43
2022-08-14T05:33:56.388Z,20.02
2022-08-14T05:36:43.963Z,19.48
2022-08-14T05:39:39.568Z,18.89
2022-08-14T05:42:31.773Z,18.40
2022-08-14T05:45:20.575Z,17.80
2022-08-14T05:48:07.528Z,17.49
2022-08-14T05:50:56.806Z,17.36
2022-08-14T05:53:43.548Z,16.93
2022-08-14T05:56:46.854Z,16.77
2022-08-14T05:59:38.578Z,16.55
2022-08-14T06:02:26.308Z,16.34
2022-08-14T06:05:12.691Z,16.55
2022-08-14T06:07:59.998Z,16.42
2022-08-14T06:10:46.749Z,16.53
2022-08-14T06:13:44.464Z,16.56
2022-08-14T06:16:32.192Z,16.50
2022-08-14T06:19:19.522Z,16.66
2022-08-14T06:22:06.070Z,16.85
2022-08-14T06:24:55.171Z,17.12
2022-08-14T06:27:49.051Z,17.53
2022-08-14T06:30:46.019Z,17.53
2022-08-14T06:35:10.796Z,17.73
2022-08-14T06:36:40.264Z,17.76
2022-08-14T06:39:36.249Z,18.03
2022-08-14T06:42:32.393Z,18.10
2022-08-14T06:45:19.939Z,18.67
2022-08-14T06:48:17.697Z,18.96
2022-08-14T06:51:04.091Z,19.12
2022-08-14T06:53:52.081Z,19.12
2022-08-14T06:56:38.959Z,19.33
2022-08-14T06:59:30.600Z,19.27
2022-08-14T07:02:43.676Z,19.76
2022-08-14T07:05:55.426Z,20.15
2022-08-14T07:08:45.319Z,20.37
2022-08-14T07:11:34.390Z,20.41
2022-08-14T07:14:22.022Z,20.52
2022-08-14T07:17:08.870Z,20.87
2022-08-14T07:19:56.031Z,20.91
2022-08-14T07:22:50.057Z,21.14
2022-08-14T07:25:44.832Z,21.53
2022-08-14T07:28:43.177Z,21.58
2022-08-14T07:31:30.377Z,21.76
2022-08-14T07:34:36.102Z,22.02
2022-08-14T07:37:23.177Z,22.20
2022-08-14T07:40:10.124Z,22.09
2022-08-14T07:42:58.182Z,22.34
2022-08-14T07:46:01.546Z,22.30
2022-08-14T07:48:49.366Z,22.48
2022-08-14T07:51:39.561Z,22.71
2022-08-14T07:54:30.047Z,22.60
2022-08-14T07:57:22.184Z,22.62
2022-08-14T08:00:31.325Z,22.63
2022-08-14T08:03:18.765Z,23.05
2022-08-14T08:06:17.595Z,23.22
2022-08-14T08:09:04.902Z,23.29
2022-08-14T08:11:54.218Z,23.36
2022-08-14T08:14:55.698Z,23.39
2022-08-14T08:17:53.560Z,23.41
2022-08-14T08:20:52.241Z,23.66
2022-08-14T08:23:50.996Z,23.58
2022-08-14T08:26:37.645Z,23.68
2022-08-14T08:29:28.661Z,23.84
2022-08-14T08:32:16.139Z,24.18
2022-08-14T08:35:02.527Z,24.21
2022-08-14T08:38:01.195Z,24.55
2022-08-14T08:40:49.596Z,24.58
2022-08-14T08:43:36.927Z,24.66
2022-08-14T08:46:24.935Z,24.72
2022-08-14T08:49:11.563Z,24.70
2022-08-14T08:52:04.350Z,24.82
2022-08-14T08:54:54.712Z,24.97
2022-08-14T08:57:40.910Z,25.35
2022-08-14T09:00:33.882Z,25.27
2022-08-14T09:03:24.297Z,25.55
2022-08-14T09:07:00.230Z,25.50
2022-08-14T09:09:33.185Z,25.68
2022-08-14T09:12:21.561Z,25.64
2022-08-14T09:15:12.462Z,25.97
2022-08-14T09:17:59.847Z,25.86
2022-08-14T09:20:50.327Z,26.13
2022-08-14T09:24:26.911Z,26.03
2022-08-14T09:26:49.290Z,26.27
2022-08-14T09:29:36.544Z,26.35
2022-08-14T09:33:09.194Z,26.52
2022-08-14T09:36:11.465Z,26.67
2022-08-14T09:39:29.639Z,26.80
2022-08-14T09:42:34.387Z,26.97
2022-08-14T09:45:52.995Z,27.11
2022-08-14T09:48:40.379Z,27.05
2022-08-14T09:51:33.030Z,27.21
2022-08-14T09:54:43.046Z,27.47
2022-08-14T09:57:31.480Z,27.20
2022-08-14T10:00:28.783Z,27.50
2022-08-14T10:03:33.911Z,27.57
2022-08-14T10:06:25.119Z,27.57
2022-08-14T10:09:16.850Z,27.57
2022-08-14T10:12:06.708Z,27.47
2022-08-14T10:15:14.778Z,27.77
2022-08-14T10:18:08.015Z,27.87
2022-08-14T10:20:58.286Z,27.74
2022-08-14T10:23:49.819Z,28.10
2022-08-14T10:26:37.234Z,28.16
2022-08-14T10:29:38.424Z,28.30
2022-08-14T10:32:36.072Z,28.35
2022-08-14T10:35:31.783Z,28.34
2022-08-14T10:38:35.380Z,28.37
2022-08-14T10:41:21.647Z,28.47
2022-08-14T10:44:22.131Z,28.67
2022-08-14T10:47:41.341Z,28.72
2022-08-14T10:50:17.290Z,28.61
2022-08-14T10:53:05.496Z,28.72
2022-08-14T10:56:03.983Z,28.72
2022-08-14T10:59:01.147Z,28.96
2022-08-14T11:01:47.750Z,28.77
2022-08-14T11:04:35.590Z,28.86
2022-08-14T11:07:25.096Z,29.03
2022-08-14T11:10:14.512Z,29.18
2022-08-14T11:13:01.996Z,29.03
2022-08-14T11:15:51.630Z,29.30
2022-08-14T11:18:39.822Z,29.37
2022-08-14T11:21:30.258Z,29.31
2022-08-14T11:24:51.018Z,29.44
2022-08-14T11:27:33.500Z,29.49
2022-08-14T11:30:49.802Z,29.58
2022-08-14T11:33:32.667Z,29.56
2022-08-14T11:36:23.737Z,29.56
2022-08-14T11:39:34.542Z,29.79
2022-08-14T11:42:58.589Z,29.59
2022-08-14T11:45:36.960Z,29.77
2022-08-14T11:49:03.993Z,30.06
2022-08-14T11:51:36.078Z,30.05
2022-08-14T11:54:37.592Z,30.07
2022-08-14T11:57:24.994Z,30.08
2022-08-14T12:00:19.475Z,29.94
2022-08-14T12:03:06.463Z,30.23
2022-08-14T12:06:05.398Z,30.32
2022-08-14T12:08:53.737Z,30.40
2022-08-14T12:11:47.686Z,30.50
2022-08-14T12:14:49.339Z,30.48
2022-08-14T12:17:49.733Z,30.42
2022-08-14T12:20:45.866Z,30.28
2022-08-14T12:23:39.784Z,30.52
2022-08-14T12:26:39.727Z,30.60
2022-08-14T12:29:27.735Z,30.69
2022-08-14T12:32:14.623Z,30.83
2022-08-14T12:35:01.190Z,30.86
2022-08-14T12:37:49.739Z,31.00
2022-08-14T12:40:51.911Z,31.21
2022-08-14T12:44:01.713Z,31.44
2022-08-14T12:46:49.031Z,31.42
2022-08-14T12:49:35.891Z,31.71
2022-08-14T12:52:43.104Z,31.77
2022-08-14T12:56:18.561Z,32.03
2022-08-14T12:58:52.753Z,32.21
2022-08-14T13:02:00.230Z,32.18
2022-08-14T13:04:50.702Z,32.16
2022-08-14T13:07:45.743Z,31.96
2022-08-14T13:10:51.348Z,31.84
2022-08-14T13:13:44.620Z,31.88
2022-08-14T13:16:33.699Z,32.18
2022-08-14T13:19:26.846Z,32.66
2022-08-14T13:22:28.852Z,32.64
2022-08-14T13:25:22.841Z,32.91
2022-08-14T13:28:12.205Z,33.02
2022-08-14T13:31:16.934Z,32.86
2022-08-14T13:34:03.459Z,32.82
2022-08-14T13:36:58.932Z,32.90
2022-08-14T13:39:56.606Z,33.10
2022-08-14T13:42:45.460Z,33.17
2022-08-14T13:46:00.816Z,33.16
2022-08-14T13:48:41.761Z,33.05
2022-08-14T13:51:36.994Z,32.86
2022-08-14T13:54:29.830Z,32.78
2022-08-14T13:57:18.457Z,32.52
2022-08-14T14:00:12.893Z,32.50
2022-08-14T14:03:00.144Z,32.50
2022-08-14T14:05:53.230Z,32.29
2022-08-14T14:08:47.866Z,32.42
2022-08-14T14:11:35.862Z,32.63
2022-08-14T14:14:45.161Z,32.56
2022-08-14T14:17:31.482Z,32.83
2022-08-14T14:20:35.720Z,32.76
2022-08-14T14:23:23.454Z,32.61
2022-08-14T14:26:13.910Z,32.70
2022-08-14T14:29:01.608Z,32.49
2022-08-14T14:31:49.286Z,32.49
2022-08-14T14:34:37.708Z,32.10
2022-08-14T14:37:26.366Z,31.88
2022-08-14T14:40:50.646Z,31.71
2022-08-14T14:43:24.986Z,31.56
2022-08-14T14:46:13.130Z,31.48
2022-08-14T14:49:01.256Z,31.04
2022-08-14T14:51:51.049Z,31.13
2022-08-14T14:54:40.146Z,31.12
2022-08-14T14:57:35.391Z,31.18
2022-08-14T15:00:22.414Z,31.13
2022-08-14T15:03:10.471Z,30.90
2022-08-14T15:05:57.284Z,30.90
2022-08-14T15:08:56.875Z,30.79
2022-08-14T15:11:47.032Z,30.95
2022-08-14T15:14:55.989Z,31.07
2022-08-14T15:17:42.403Z,31.18
2022-08-14T15:20:31.010Z,31.38
2022-08-14T15:23:18.055Z,31.31
2022-08-14T15:26:08.803Z,31.20
2022-08-14T15:29:03.245Z,31.14
2022-08-14T15:31:51.526Z,31.23
2022-08-14T15:34:51.100Z,31.01
2022-08-14T15:37:42.307Z,31.02
2022-08-14T15:40:29.102Z,30.90
2022-08-14T15:43:16.743Z,31.02
2022-08-14T15:46:06.941Z,30.99
2022-08-14T15:48:53.913Z,30.91
2022-08-14T15:51:43.575Z,30.81
2022-08-14T15:54:31.196Z,30.97
2022-08-14T15:57:21.071Z,30.92
2022-08-14T16:00:43.786Z,30.79
2022-08-14T16:03:35.693Z,30.99
2022-08-14T16:06:28.678Z,30.83
2022-08-14T16:09:14.992Z,30.89
2022-08-14T16:12:02.410Z,30.95
2022-08-14T16:14:49.087Z,30.90
2022-08-14T16:17:37.866Z,31.03
2022-08-14T16:20:41.505Z,30.73
2022-08-14T16:23:36.211Z,30.88
2022-08-14T16:26:29.829Z,30.74
2022-08-14T16:29:19.732Z,30.50
2022-08-14T16:32:32.721Z,30.58
2022-08-14T16:35:16.374Z,30.50
2022-08-14T16:38:44.582Z,30.38
2022-08-14T16:41:17.149Z,30.49
2022-08-14T16:44:13.718Z,30.61
2022-08-14T16:47:13.723Z,30.46
2022-08-14T16:50:04.370Z,30.47
2022-08-14T16:52:56.004Z,30.47
2022-08-14T16:56:07.024Z,30.46
2022-08-14T16:59:08.358Z,30.50
2022-08-14T17:02:00.724Z,30.30
2022-08-14T17:04:53.438Z,30.19
2022-08-14T17:07:44.867Z,29.87
2022-08-14T17:10:36.684Z,29.90
2022-08-14T17:13:59.983Z,29.90
2022-08-14T17:16:37.190Z,29.55
2022-08-14T17:19:27.092Z,29.40
2022-08-14T17:22:17.891Z,29.26
2022-08-14T17:25:04.479Z,29.16
2022-08-14T17:28:50.026Z,29.02
2022-08-14T17:31:19.734Z,28.63
2022-08-14T17:34:07.575Z,28.65
2022-08-14T17:37:04.997Z,28.55
2022-08-14T17:40:22.628Z,28.52
2022-08-14T17:43:13.205Z,28.32
2022-08-14T17:45:59.622Z,28.13
2022-08-14T17:49:15.749Z,28.31
2022-08-14T17:52:17.072Z,28.16
2022-08-14T17:55:07.016Z,27.97
2022-08-14T17:57:54.596Z,27.54
2022-08-14T18:00:43.465Z,27.83
2022-08-14T18:03:50.454Z,27.44
2022-08-14T18:06:58.564Z,27.36
2022-08-14T18:09:57.406Z,27.32
2022-08-14T18:12:45.463Z,27.09
2022-08-14T18:15:36.980Z,26.89
2022-08-14T18:18:24.608Z,26.64
2022-08-14T18:21:40.370Z,26.54
2022-08-14T18:24:29.733Z,26.45
2022-08-14T18:27:28.812Z,26.32
2022-08-14T18:30:31.941Z,26.20
2022-08-14T18:33:28.250Z,26.03
2022-08-14T18:36:56.703Z,26.00
2022-08-14T18:40:03.211Z,25.66
2022-08-14T18:43:02.159Z,25.70
2022-08-14T18:46:01.152Z,25.68
2022-08-14T18:49:14.332Z,25.77
2022-08-14T18:52:29.633Z,25.88
2022-08-14T18:55:18.465Z,25.87
2022-08-14T18:58:26.527Z,25.85
2022-08-14T19:01:29.852Z,25.60
2022-08-14T19:04:36.061Z,25.67
2022-08-14T19:07:23.038Z,25.66
2022-08-14T19:10:16.799Z,25.45
2022-08-14T19:13:11.571Z,25.68
2022-08-14T19:16:05.176Z,25.70
2022-08-14T19:19:00.035Z,25.66
2022-08-14T19:21:57.012Z,25.56
2022-08-14T19:24:44.193Z,25.64
2022-08-14T19:27:37.524Z,25.77
2022-08-14T19:30:25.750Z,25.66
2022-08-14T19:33:47.607Z,25.43
2022-08-14T19:37:04.420Z,25.21
2022-08-14T19:39:56.064Z,25.46
2022-08-14T19:42:46.652Z,25.19
2022-08-14T19:45:34.148Z,25.41
2022-08-14T19:48:20.974Z,25.42
2022-08-14T19:51:08.090Z,25.41
2022-08-14T19:54:03.193Z,25.37
2022-08-14T19:56:50.818Z,25.22
2022-08-14T19:59:57.611Z,25.11
2022-08-14T20:02:49.014Z,25.00
2022-08-14T20:05:45.570Z,25.04
2022-08-14T20:09:05.761Z,24.98
2022-08-14T20:12:01.812Z,25.10
2022-08-14T20:14:51.610Z,24.72
2022-08-14T20:17:40.460Z,24.96
2022-08-14T20:20:31.925Z,24.82
2022-08-14T20:23:20.132Z,24.97
2022-08-14T20:26:30.691Z,24.98
2022-08-14T20:29:31.038Z,24.81
2022-08-14T20:32:32.500Z,24.85
2022-08-14T20:35:36.186Z,24.87
2022-08-14T20:38:29.198Z,24.70
2022-08-14T20:41:20.292Z,24.77
2022-08-14T20:44:28.444Z,24.78
2022-08-14T20:47:16.425Z,24.73
2022-08-14T20:50:23.579Z,24.67
2022-08-14T20:53:26.250Z,24.66
2022-08-14T20:56:27.967Z,24.64
2022-08-14T20:59:20.130Z,24.64
2022-08-14T21:02:46.301Z,24.72
2022-08-14T21:05:37.282Z,24.19
2022-08-14T21:08:26.057Z,24.21
2022-08-14T21:11:17.840Z,24.45
2022-08-14T21:14:20.062Z,24.44
2022-08-14T21:17:14.850Z,24.22
2022-08-14T21:20:25.897Z,24.48
2022-08-14T21:23:14.125Z,24.30
2022-08-14T21:26:01.357Z,24.31
2022-08-14T21:28:50.081Z,24.18
2022-08-14T21:31:38.065Z,24.26
2022-08-14T21:34:27.565Z,24.23
2022-08-14T21:37:18.147Z,24.15
2022-08-14T21:40:35.379Z,24.31
2022-08-14T21:43:21.728Z,24.21
2022-08-14T21:46:08.439Z,24.22
2022-08-14T21:48:55.325Z,23.84
2022-08-14T21:51:57.187Z,24.07
2022-08-14T21:54:50.068Z,23.98
2022-08-14T21:57:56.740Z,24.14
2022-08-14T22:00:51.826Z,24.01
2022-08-14T22:03:44.849Z,23.91
2022-08-14T22:06:32.995Z,24.05
2022-08-14T22:09:24.601Z,23.82
2022-08-14T22:12:57.582Z,23.81
2022-08-14T22:15:31.105Z,23.97
2022-08-14T22:18:20.205Z,23.63
2022-08-14T22:21:08.066Z,23.62
2022-08-14T22:24:10.634Z,23.81
2022-08-14T22:26:59.542Z,23.75
2022-08-14T22:29:46.407Z,23.67
2022-08-14T22:32:56.371Z,23.65
2022-08-14T22:35:45.226Z,23.47
2022-08-14T22:38:35.895Z,23.42
2022-08-14T22:41:31.475Z,23.36
2022-08-14T22:44:28.456Z,23.38
2022-08-14T22:47:15.657Z,23.30
2022-08-14T22:50:31.702Z,23.31
2022-08-14T22:53:10.285Z,23.42
2022-08-14T22:55:58.678Z,23.45
2022-08-14T22:58:45.397Z,23.34
2022-08-14T23:01:55.677Z,23.44
2022-08-14T23:04:54.379Z,22.90
2022-08-14T23:08:57.791Z,23.23
2022-08-14T23:10:47.455Z,23.24
2022-08-14T23:13:43.448Z,23.25
2022-08-14T23:16:31.250Z,23.10
2022-08-14T23:19:22.842Z,23.11
2022-08-14T23:22:10.706Z,22.77
2022-08-14T23:25:03.853Z,22.69
2022-08-14T23:28:03.257Z,22.76
2022-08-14T23:30:50.182Z,22.50
2022-08-14T23:33:46.061Z,22.60
2022-08-14T23:36:52.938Z,22.48
2022-08-14T23:39:40.352Z,22.13
2022-08-14T23:42:40.006Z,22.32
2022-08-14T23:45:35.364Z,22.11
2022-08-14T23:48:27.944Z,21.92
2022-08-14T23:51:17.211Z,22.08
2022-08-14T23:54:48.072Z,21.88
2022-08-14T23:57:13.494Z,21.87
